地図

経路データ

SID SEASON NUMBER BASIN SUBBASIN NAME ISO_TIME NATURE LAT LON WMO_WIND WMO_PRES WMO_AGENCY TRACK_TYPE DIST2LAND LANDFALL IFLAG USA_AGENCY USA_ATCF_ID USA_LAT USA_LON USA_RECORD USA_STATUS USA_WIND USA_PRES USA_SSHS USA_R34_NE USA_R34_SE USA_R34_SW USA_R34_NW USA_R50_NE USA_R50_SE USA_R50_SW USA_R50_NW USA_R64_NE USA_R64_SE USA_R64_SW USA_R64_NW USA_POCI USA_ROCI USA_RMW USA_EYE TOKYO_LAT TOKYO_LON TOKYO_GRADE TOKYO_WIND TOKYO_PRES TOKYO_R50_DIR TOKYO_R50_LONG TOKYO_R50_SHORT TOKYO_R30_DIR TOKYO_R30_LONG TOKYO_R30_SHORT TOKYO_LAND CMA_LAT CMA_LON CMA_CAT CMA_WIND CMA_PRES HKO_LAT HKO_LON HKO_CAT HKO_WIND HKO_PRES NEWDELHI_LAT NEWDELHI_LON NEWDELHI_GRADE NEWDELHI_WIND NEWDELHI_PRES NEWDELHI_CI NEWDELHI_DP NEWDELHI_POCI REUNION_LAT REUNION_LON REUNION_TYPE REUNION_WIND REUNION_PRES REUNION_TNUM REUNION_CI REUNION_RMW REUNION_R34_NE REUNION_R34_SE REUNION_R34_SW REUNION_R34_NW REUNION_R50_NE REUNION_R50_SE REUNION_R50_SW REUNION_R50_NW REUNION_R64_NE REUNION_R64_SE REUNION_R64_SW REUNION_R64_NW BOM_LAT BOM_LON BOM_TYPE BOM_WIND BOM_PRES BOM_TNUM BOM_CI BOM_RMW BOM_R34_NE BOM_R34_SE BOM_R34_SW BOM_R34_NW BOM_R50_NE BOM_R50_SE BOM_R50_SW BOM_R50_NW BOM_R64_NE BOM_R64_SE BOM_R64_SW BOM_R64_NW BOM_ROCI BOM_POCI BOM_EYE BOM_POS_METHOD BOM_PRES_METHOD NADI_LAT NADI_LON NADI_CAT NADI_WIND NADI_PRES WELLINGTON_LAT WELLINGTON_LON WELLINGTON_WIND WELLINGTON_PRES DS824_LAT DS824_LON DS824_STAGE DS824_WIND DS824_PRES TD9636_LAT TD9636_LON TD9636_STAGE TD9636_WIND TD9636_PRES TD9635_LAT TD9635_LON TD9635_WIND TD9635_PRES TD9635_ROCI NEUMANN_LAT NEUMANN_LON NEUMANN_CLASS NEUMANN_WIND NEUMANN_PRES MLC_LAT MLC_LON MLC_CLASS MLC_WIND MLC_PRES USA_GUST BOM_GUST BOM_GUST_PER REUNION_GUST REUNION_GUST_PER USA_SEAHGT USA_SEARAD_NE USA_SEARAD_SE USA_SEARAD_SW USA_SEARAD_NW STORM_SPEED STORM_DIR
2013232N22088 2013 51 NI BB NOT_NAMED 2013-08-20 00:00:00 NR 22.0000 87.5000 25 990 newdelhi main 0 0 ____O_________ -1 22.0000 87.5000 D 25 990 0.00000 3 0 0
2013232N22088 2013 51 NI BB NOT_NAMED 2013-08-20 03:00:00 NR 22.0000 87.5000 25 990 newdelhi main 0 0 ____O_________ -1 22.0000 87.5000 D 25 990 0.00000 3 0 0
2013232N22088 2013 51 NI BB NOT_NAMED 2013-08-20 06:00:00 NR 22.0000 87.5000 25 990 newdelhi main 0 0 ____O_________ -1 22.0000 87.5000 D 25 990 0.00000 3 1 0
2013232N22088 2013 51 NI BB NOT_NAMED 2013-08-20 09:00:00 NR 22.1261 87.5000 main 0 0 ____P_________ -1 22.1261 87.5000 D 25 990 3 3 0
2013232N22088 2013 51 NI BB NOT_NAMED 2013-08-20 12:00:00 NR 22.3000 87.5000 25 990 newdelhi main 0 0 ____O_________ -1 22.3000 87.5000 D 25 990 0.00000 3 2 11
2013232N22088 2013 51 NI BB NOT_NAMED 2013-08-20 15:00:00 NR 22.3624 87.5372 main 0 0 ____P_________ -1 22.3624 87.5372 D 25 990 3 2 8
2013232N22088 2013 51 NI BB NOT_NAMED 2013-08-20 18:00:00 NR 22.5000 87.5000 25 990 newdelhi main 0 0 ____O_________ -1 22.5000 87.5000 D 25 990 0.00000 3 6 351
2013232N22088 2013 51 NI BB NOT_NAMED 2013-08-20 21:00:00 NR 22.9400 87.4376 main 0 0 ____P_________ -1 22.9400 87.4376 D 22 990 3 9 330
2013232N22088 2013 51 NI BB NOT_NAMED 2013-08-21 00:00:00 NR 23.3000 87.0000 20 990 newdelhi main 0 0 ____O_________ -1 23.3000 87.0000 D 20 990 0.00000 3 14 285
2013232N22088 2013 51 NI BB NOT_NAMED 2013-08-21 03:00:00 NR 23.3000 86.0000 20 992 newdelhi main 0 0 ____O_________ -1 23.3000 86.0000 D 20 992 0.00000 3 12 265
2013232N22088 2013 51 NI BB NOT_NAMED 2013-08-21 06:00:00 NR 23.2000 85.7000 20 992 newdelhi main 0 0 ____O_________ -1 23.2000 85.7000 D 20 992 0.00000 3 10 263
2013232N22088 2013 51 NI BB NOT_NAMED 2013-08-21 09:00:00 NR 23.1800 84.9694 main 0 0 ____P_________ -1 23.1800 84.9694 D 20 991 3 16 270
2013232N22088 2013 51 NI BB NOT_NAMED 2013-08-21 12:00:00 NR 23.2000 84.0000 20 991 newdelhi main 0 0 ____O_________ -1 23.2000 84.0000 D 20 991 0.00000 3 18 271
2013232N22088 2013 51 NI BB NOT_NAMED 2013-08-21 15:00:00 NR 23.2010 82.9876 main 0 0 ____P_________ -1 23.2010 82.9876 D 20 992 3 17 270
2013232N22088 2013 51 NI BB NOT_NAMED 2013-08-21 18:00:00 NR 23.2000 82.2000 20 994 newdelhi main 0 0 ____O_________ -1 23.2000 82.2000 D 20 994 0.00000 3 7 270
2013232N22088 2013 51 NI BB NOT_NAMED 2013-08-21 21:00:00 NR 23.1979 82.2363 main 0 0 ____P_________ -1 23.1979 82.2363 D 20 994 3 2 270
2013232N22088 2013 51 NI BB NOT_NAMED 2013-08-22 00:00:00 NR 23.2000 82.0000 20 994 newdelhi main 0 0 ____O_________ -1 23.2000 82.0000 D 20 994 0.00000 3 14 270
2013232N22088 2013 51 NI BB NOT_NAMED 2013-08-22 03:00:00 NR 23.2000 80.7000 20 994 newdelhi main 0 0 ____O_________ -1 23.2000 80.7000 D 20 994 0.00000 3 16 270
2013232N22088 2013 51 NI BB NOT_NAMED 2013-08-22 06:00:00 NR 23.2000 80.3000 20 996 newdelhi main 0 0 ____O_________ -1 23.2000 80.3000 D 20 996 0.00000 3 5 261
2013232N22088 2013 51 NI BB NOT_NAMED 2013-08-22 09:00:00 NR 23.1175 80.1316 main 0 0 ____P_________ -1 23.1175 80.1316 D 20 997 3 3 223
2013232N22088 2013 51 NI BB NOT_NAMED 2013-08-22 12:00:00 NR 23.0000 80.1000 20 998 newdelhi main 0 0 ____O_________ -1 23.0000 80.1000 D 20 998 0.00000 3 2 198
2013232N22088 2013 51 NI BB NOT_NAMED 2013-08-22 15:00:00 NR 22.9115 80.0597 main 0 0 ____P_________ -1 22.9115 80.0597 D 20 998 3 2 216
2013232N22088 2013 51 NI BB NOT_NAMED 2013-08-22 18:00:00 NR 22.8561 79.9897 main 0 0 ____P_________ -1 22.8561 79.9897 D 20 998 3 2 239
2013232N22088 2013 51 NI BB NOT_NAMED 2013-08-22 21:00:00 NR 22.8226 79.8998 main 0 0 ____P_________ -1 22.8226 79.8998 D 20 998 3 2 252
2013232N22088 2013 51 NI BB NOT_NAMED 2013-08-23 00:00:00 NR 22.8000 79.8000 20 998 newdelhi main 0 ____O_________ -1 22.8000 79.8000 D 20 998 0.00000 3 2 255

IBTrACS Databaseについて

本データベースは、米国NOAAが公開する1842年以降の世界の熱帯低気圧のベストトラックデータアーカイブInternational Best Track Archive for Climate Stewardship (IBTrACS)を、ウェブで閲覧しやすい形式に変換したものです。

最終更新日:2021-12-01